Time;durP1;ratioP1;P1;durP2;ratioP2;P2;SDS_P1;SDS_P2;PMS_P1;PMS_P2;Temp;Humidity;BMP_temperature;BMP_pressure;BME280_temperature;BME280_humidity;BME280_pressure;Samples;Min_cycle;Max_cycle;Signal;HPM_P1;HPM_P2
2022/03/21 00:01:18;;;;;;;4.82;3.50;;;19.40;67.20;;;;;;7935680;28;20191;-52
2022/03/21 00:05:05;;;;;;;5.18;3.90;;;19.40;67.20;;;;;;7935742;28;20657;-52
2022/03/21 00:08:51;;;;;;;6.05;3.88;;;19.40;67.20;;;;;;7935660;28;20726;-51
2022/03/21 00:12:39;;;;;;;8.15;4.47;;;19.30;67.10;;;;;;7935702;28;20567;-52
2022/03/21 00:16:25;;;;;;;6.28;3.80;;;19.40;67.20;;;;;;7935697;28;20255;-51
2022/03/21 00:20:12;;;;;;;5.78;4.13;;;19.30;67.00;;;;;;7935015;28;20196;-52
2022/03/21 00:23:58;;;;;;;4.72;3.80;;;19.30;67.00;;;;;;7934770;28;20211;-51
2022/03/21 00:27:43;;;;;;;5.20;3.80;;;19.20;67.00;;;;;;7934593;28;20186;-53
2022/03/21 00:31:29;;;;;;;5.18;3.78;;;19.30;67.00;;;;;;7934722;28;20180;-53
2022/03/21 00:35:15;;;;;;;5.10;4.00;;;19.20;66.90;;;;;;7935044;28;20211;-52
2022/03/21 00:39:01;;;;;;;4.97;3.70;;;19.20;66.90;;;;;;7934575;28;20195;-50
2022/03/21 00:42:48;;;;;;;5.43;3.90;;;19.20;66.90;;;;;;7934283;28;20559;-52
2022/03/21 00:46:34;;;;;;;4.53;3.80;;;19.20;66.90;;;;;;7934574;28;20660;-51
2022/03/21 00:50:22;;;;;;;6.18;4.13;;;19.10;66.70;;;;;;7934138;28;20218;-51
2022/03/21 00:54:08;;;;;;;7.57;4.15;;;19.10;66.70;;;;;;7934494;28;20192;-51
2022/03/21 00:57:53;;;;;;;4.47;3.88;;;19.10;66.70;;;;;;7934282;28;20727;-52
2022/03/21 01:01:39;;;;;;;6.03;4.18;;;19.10;66.70;;;;;;7934054;28;20660;-52
2022/03/21 01:05:24;;;;;;;6.03;4.93;;;19.10;66.70;;;;;;7934018;28;20192;-50
2022/03/21 01:09:12;;;;;;;5.80;4.07;;;19.10;66.70;;;;;;7933940;28;20203;-52
2022/03/21 01:12:57;;;;;;;5.65;4.25;;;19.00;66.70;;;;;;7933974;28;20206;-51
2022/03/21 01:16:43;;;;;;;5.53;4.43;;;19.10;66.70;;;;;;7933589;28;20184;-52
2022/03/21 01:20:29;;;;;;;5.57;4.35;;;19.10;66.70;;;;;;7933319;28;20183;-51
2022/03/21 01:24:14;;;;;;;4.53;3.90;;;19.00;66.60;;;;;;7933297;28;20203;-53
2022/03/21 01:28:00;;;;;;;5.13;4.20;;;19.00;66.50;;;;;;7933348;28;20533;-52
2022/03/21 01:31:45;;;;;;;6.30;4.00;;;18.90;66.50;;;;;;7932966;28;20176;-51
2022/03/21 01:35:30;;;;;;;5.32;4.28;;;19.00;66.50;;;;;;7933019;27;20192;-53
2022/03/21 01:39:16;;;;;;;5.47;4.20;;;18.90;66.50;;;;;;7932581;28;20603;-52
2022/03/21 01:43:02;;;;;;;4.68;4.10;;;18.90;66.50;;;;;;7932815;28;20194;-53
2022/03/21 01:46:48;;;;;;;6.88;3.97;;;18.90;66.50;;;;;;7932719;28;20176;-53
2022/03/21 01:50:33;;;;;;;6.70;4.00;;;18.90;66.40;;;;;;7932413;28;20192;-50
2022/03/21 01:58:25;;;;;;;6.97;4.85;;;18.80;66.40;;;;;;7932647;28;20195;-51
2022/03/21 02:02:10;;;;;;;4.93;4.20;;;18.80;66.30;;;;;;7932147;28;20630;-52
2022/03/21 02:05:56;;;;;;;5.93;4.55;;;18.80;66.20;;;;;;7932300;28;20644;-51
2022/03/21 02:09:42;;;;;;;7.18;4.65;;;18.80;66.30;;;;;;7932035;28;20271;-52
2022/03/21 02:13:28;;;;;;;5.25;4.13;;;18.70;66.20;;;;;;7932146;28;20347;-50
2022/03/21 02:17:19;;;;;;;5.65;4.45;;;18.70;66.20;;;;;;7932173;28;20215;-52
2022/03/21 02:21:09;;;;;;;6.15;4.05;;;18.70;66.30;;;;;;7931808;28;20168;-51
2022/03/21 02:25:12;;;;;;;4.53;3.78;;;18.70;66.20;;;;;;7931964;28;20202;-51
2022/03/21 02:28:58;;;;;;;5.70;4.05;;;18.70;66.30;;;;;;7932018;28;20179;-52
2022/03/21 02:32:46;;;;;;;5.53;4.30;;;18.70;66.30;;;;;;7931712;28;20211;-51
2022/03/21 02:36:32;;;;;;;6.57;4.30;;;18.60;66.00;;;;;;7932045;28;20176;-50
2022/03/21 02:40:17;;;;;;;6.28;4.25;;;18.60;66.00;;;;;;7931616;28;20252;-51
2022/03/21 02:44:03;;;;;;;6.65;4.35;;;18.60;66.10;;;;;;7931877;28;20204;-51
2022/03/21 02:47:49;;;;;;;5.60;4.20;;;18.60;66.10;;;;;;7932594;28;20603;-50
2022/03/21 02:51:39;;;;;;;4.72;4.18;;;18.60;65.90;;;;;;7937665;28;20196;-52
2022/03/21 02:55:25;;;;;;;5.45;4.07;;;18.60;66.10;;;;;;7937846;28;20188;-50
2022/03/21 02:59:10;;;;;;;6.22;4.22;;;18.60;65.90;;;;;;7937485;28;20239;-50
2022/03/21 03:02:56;;;;;;;5.38;3.75;;;18.60;65.80;;;;;;7937563;28;20271;-51
2022/03/21 03:06:41;;;;;;;5.78;4.35;;;18.50;66.00;;;;;;7937631;28;20245;-51
2022/03/21 03:10:26;;;;;;;6.63;4.57;;;18.50;65.60;;;;;;7937146;28;20172;-54
2022/03/21 03:14:12;;;;;;;5.10;4.20;;;18.50;65.70;;;;;;7937318;28;20661;-52
2022/03/21 03:17:58;;;;;;;5.55;4.03;;;18.50;65.10;;;;;;7937150;28;20191;-50
2022/03/21 03:21:46;;;;;;;4.95;4.38;;;18.50;65.30;;;;;;7937011;28;20262;-50
2022/03/21 03:25:31;;;;;;;4.88;4.28;;;18.40;65.00;;;;;;7936973;28;20255;-51
2022/03/21 03:29:17;;;;;;;8.20;3.95;;;18.50;65.20;;;;;;7936591;28;20183;-52
2022/03/21 03:33:03;;;;;;;5.75;4.38;;;18.50;65.40;;;;;;7936664;28;20223;-52
2022/03/21 03:36:48;;;;;;;5.55;4.13;;;18.40;65.20;;;;;;7936520;28;20180;-51
2022/03/21 03:40:34;;;;;;;5.38;4.28;;;18.40;64.60;;;;;;7936271;28;20661;-52
2022/03/21 03:44:20;;;;;;;5.03;4.00;;;18.40;64.20;;;;;;7936433;28;20192;-52
2022/03/21 03:48:05;;;;;;;6.00;4.57;;;18.40;64.20;;;;;;7936251;28;20179;-52
2022/03/21 03:51:51;;;;;;;5.70;4.30;;;18.40;64.90;;;;;;7935948;28;20253;-52
2022/03/21 03:55:37;;;;;;;6.43;4.40;;;18.40;64.00;;;;;;7936041;28;20231;-52
2022/03/21 03:59:22;;;;;;;5.07;4.05;;;18.30;64.20;;;;;;7934457;28;20689;-52
2022/03/21 04:07:12;;;;;;;7.22;4.80;;;18.30;63.70;;;;;;7935842;28;20208;-52
2022/03/21 04:10:57;;;;;;;7.22;4.32;;;18.30;63.80;;;;;;7935419;28;20234;-52
2022/03/21 04:14:46;;;;;;;5.20;4.22;;;18.30;63.40;;;;;;7935546;28;20276;-52
2022/03/21 04:18:32;;;;;;;4.95;3.97;;;18.30;63.00;;;;;;7935951;28;20207;-53
2022/03/21 04:22:18;;;;;;;6.20;4.40;;;18.30;63.60;;;;;;7934966;28;20204;-52
2022/03/21 04:26:04;;;;;;;5.13;3.95;;;18.20;64.10;;;;;;7935433;28;20232;-52
2022/03/21 04:29:49;;;;;;;5.22;3.97;;;18.20;63.20;;;;;;7935029;28;20176;-50
2022/03/21 04:33:35;;;;;;;6.05;4.60;;;18.30;62.50;;;;;;7935376;27;20204;-52
2022/03/21 04:37:20;;;;;;;6.82;4.97;;;18.20;62.90;;;;;;7935206;28;20561;-52
2022/03/21 04:41:06;;;;;;;6.53;4.55;;;18.20;62.50;;;;;;7934990;28;20660;-52
2022/03/21 04:44:52;;;;;;;4.70;4.15;;;18.20;62.70;;;;;;7934959;28;20188;-51
2022/03/21 04:48:37;;;;;;;5.72;4.43;;;18.20;63.00;;;;;;7934643;28;20307;-52
2022/03/21 04:52:23;;;;;;;4.90;3.70;;;18.20;63.10;;;;;;7934318;28;20677;-52
2022/03/21 04:56:09;;;;;;;5.97;4.47;;;18.20;63.20;;;;;;7934344;28;20172;-51
2022/03/21 04:59:55;;;;;;;4.93;4.40;;;18.10;62.90;;;;;;7933864;28;20210;-51
2022/03/21 05:03:42;;;;;;;5.43;4.18;;;18.20;62.80;;;;;;7934167;28;20736;-52
2022/03/21 05:07:29;;;;;;;5.65;4.03;;;18.10;63.00;;;;;;7928415;28;20191;-51
2022/03/21 05:11:14;;;;;;;5.53;3.97;;;18.10;64.60;;;;;;7932180;28;20223;-50
2022/03/21 05:15:00;;;;;;;7.72;4.03;;;18.00;64.70;;;;;;7932883;28;20196;-52
2022/03/21 05:18:46;;;;;;;6.43;4.38;;;18.10;65.20;;;;;;7932501;28;20207;-50
2022/03/21 05:22:31;;;;;;;14.90;4.47;;;18.10;63.60;;;;;;7911306;28;20674;-51
2022/03/21 05:38:30;;;;;;;9.60;4.20;;;18.10;65.80;;;;;;7924019;28;20294;-51
2022/03/21 05:42:16;;;;;;;10.77;3.75;;;18.00;65.40;;;;;;7912881;28;20346;-51
2022/03/21 05:46:03;;;;;;;10.00;4.28;;;18.00;66.00;;;;;;7900307;28;20169;-51
2022/03/21 05:49:48;;;;;;;8.65;4.35;;;18.10;66.70;;;;;;7899769;28;20201;-52
2022/03/21 05:53:34;;;;;;;6.18;4.03;;;18.10;66.90;;;;;;7900415;28;20700;-55
2022/03/21 05:57:19;;;;;;;5.82;4.25;;;18.10;67.10;;;;;;7900050;28;20204;-52
2022/03/21 06:01:05;;;;;;;5.32;3.97;;;18.10;67.20;;;;;;7899292;28;20234;-51
2022/03/21 06:04:50;;;;;;;6.45;4.00;;;18.20;67.40;;;;;;7899905;28;20211;-53
2022/03/21 06:08:36;;;;;;;8.48;4.63;;;18.10;67.40;;;;;;7899630;28;20185;-50
2022/03/21 06:12:22;;;;;;;10.10;4.03;;;18.10;66.50;;;;;;7899537;28;20207;-57
2022/03/21 06:16:08;;;;;;;19.65;4.15;;;18.10;66.40;;;;;;7899513;28;20223;-52
2022/03/21 06:19:53;;;;;;;10.18;4.07;;;18.10;66.50;;;;;;7898968;28;20200;-52
2022/03/21 06:23:39;;;;;;;34.08;5.80;;;18.10;66.50;;;;;;7923091;28;20207;-56
2022/03/21 06:27:25;;;;;;;25.10;4.32;;;18.00;66.20;;;;;;7930989;28;20172;-52
2022/03/21 06:31:11;;;;;;;28.30;4.30;;;18.10;66.10;;;;;;7930717;28;20184;-53
2022/03/21 06:34:56;;;;;;;23.92;4.30;;;18.10;66.40;;;;;;7931072;28;20689;-51
2022/03/21 06:38:43;;;;;;;13.45;3.75;;;18.10;66.80;;;;;;7905621;28;20299;-51
2022/03/21 06:42:28;;;;;;;18.85;6.32;;;18.10;67.00;;;;;;7899607;28;20238;-52
2022/03/21 06:46:14;;;;;;;15.95;6.53;;;18.10;62.40;;;;;;7896867;28;20225;-54
2022/03/21 06:50:00;;;;;;;14.65;6.32;;;18.00;63.70;;;;;;7898853;28;20219;-52
2022/03/21 06:53:45;;;;;;;16.90;6.25;;;18.00;64.80;;;;;;7924288;28;20204;-53
2022/03/21 06:57:31;;;;;;;20.15;5.93;;;18.00;65.30;;;;;;7930757;28;20200;-52
2022/03/21 07:01:16;;;;;;;19.73;5.97;;;17.90;65.40;;;;;;7930235;28;20172;-52
2022/03/21 07:05:03;;;;;;;16.17;6.32;;;18.10;65.40;;;;;;7930420;28;20192;-50
2022/03/21 07:08:51;;;;;;;16.33;5.93;;;18.10;65.40;;;;;;7903748;28;20196;-52
2022/03/21 07:12:38;;;;;;;22.05;5.20;;;18.20;65.30;;;;;;7898677;28;20663;-52
2022/03/21 07:16:23;;;;;;;12.57;5.47;;;18.30;65.30;;;;;;7898650;28;20183;-52
2022/03/21 07:20:12;;;;;;;18.95;5.63;;;18.40;65.40;;;;;;7898352;28;20204;-52
2022/03/21 07:23:58;;;;;;;16.55;5.18;;;18.60;65.50;;;;;;7926914;28;20234;-53
2022/03/21 07:27:47;;;;;;;14.25;5.07;;;18.60;65.50;;;;;;7928014;28;20176;-52
2022/03/21 07:31:34;;;;;;;10.50;5.00;;;18.70;65.70;;;;;;7929710;28;20186;-52
2022/03/21 07:35:20;;;;;;;14.30;5.00;;;18.80;65.70;;;;;;7933152;28;20570;-50
2022/03/21 07:39:05;;;;;;;6.18;4.63;;;18.80;65.90;;;;;;7905712;28;20233;-50
2022/03/21 07:42:51;;;;;;;11.85;4.53;;;18.90;66.00;;;;;;7903626;28;20754;-55
2022/03/21 07:50:43;;;;;;;13.23;4.47;;;18.90;66.00;;;;;;7903660;28;20315;-51
2022/03/21 07:54:29;;;;;;;7.20;4.40;;;19.00;66.20;;;;;;7903478;28;20198;-53
2022/03/21 07:58:14;;;;;;;10.32;4.53;;;19.00;66.30;;;;;;7903543;28;20227;-51
2022/03/21 08:02:00;;;;;;;11.15;4.93;;;19.00;66.40;;;;;;7903240;28;20180;-53
2022/03/21 08:05:45;;;;;;;9.98;4.22;;;19.00;66.60;;;;;;7903602;28;20184;-52
2022/03/21 08:09:31;;;;;;;8.13;4.10;;;19.00;66.80;;;;;;7903130;28;20523;-54
2022/03/21 08:13:17;;;;;;;8.88;4.05;;;19.10;66.70;;;;;;7903741;28;20292;-52
2022/03/21 08:17:04;;;;;;;8.63;4.00;;;19.00;66.60;;;;;;7903422;28;20619;-52
2022/03/21 08:20:49;;;;;;;11.27;4.25;;;19.00;66.70;;;;;;7908321;28;20186;-51
2022/03/21 08:24:35;;;;;;;8.32;3.95;;;19.00;66.90;;;;;;7910015;28;20200;-52
2022/03/21 08:28:20;;;;;;;6.32;3.80;;;19.10;66.90;;;;;;7916586;28;20192;-51
2022/03/21 08:32:07;;;;;;;7.05;4.13;;;19.10;67.00;;;;;;7926785;28;20199;-52
2022/03/21 08:35:52;;;;;;;6.10;4.00;;;19.10;67.10;;;;;;7905397;28;20188;-52
2022/03/21 08:39:38;;;;;;;8.30;4.00;;;19.10;67.00;;;;;;7901869;28;20208;-51
2022/03/21 08:43:24;;;;;;;10.60;3.90;;;19.20;67.00;;;;;;7902087;28;20192;-52
2022/03/21 08:47:09;;;;;;;14.90;3.95;;;19.10;66.60;;;;;;7901435;28;20790;-52
2022/03/21 08:50:55;;;;;;;15.00;3.83;;;19.10;66.70;;;;;;7905776;28;20282;-54
2022/03/21 08:54:41;;;;;;;16.10;4.05;;;19.20;66.70;;;;;;7933387;28;20786;-53
2022/03/21 08:58:27;;;;;;;21.02;4.50;;;19.20;66.80;;;;;;7932913;28;20208;-50
2022/03/21 09:02:13;;;;;;;11.90;3.92;;;19.30;67.00;;;;;;7932890;28;20543;-52
2022/03/21 09:05:58;;;;;;;10.75;3.72;;;19.30;67.00;;;;;;7921978;28;20184;-53
2022/03/21 09:09:44;;;;;;;14.90;4.40;;;19.30;67.10;;;;;;7915457;28;20668;-50
2022/03/21 09:13:31;;;;;;;17.02;3.83;;;19.30;67.10;;;;;;7917709;28;20302;-52
2022/03/21 09:17:16;;;;;;;12.20;4.03;;;19.30;67.20;;;;;;7916431;28;20673;-53
2022/03/21 09:21:02;;;;;;;7.57;3.63;;;19.30;67.50;;;;;;7916530;28;20840;-55
2022/03/21 09:24:48;;;;;;;8.07;3.67;;;19.20;67.00;;;;;;7922767;28;20460;-54
2022/03/21 09:28:33;;;;;;;15.93;4.32;;;19.10;66.00;;;;;;7901719;28;20191;-52
2022/03/21 09:32:19;;;;;;;14.48;4.32;;;19.20;66.70;;;;;;7900453;28;20224;-52
2022/03/21 09:36:04;;;;;;;18.73;3.88;;;19.20;66.10;;;;;;7900958;28;20227;-53
2022/03/21 09:39:50;;;;;;;22.83;4.53;;;19.30;66.50;;;;;;7900487;28;20283;-53
2022/03/21 09:43:37;;;;;;;28.58;5.00;;;19.20;66.00;;;;;;7900693;28;20201;-54
2022/03/21 09:51:30;;;;;;;25.30;4.35;;;19.30;66.60;;;;;;7899797;28;20231;-54
2022/03/21 09:55:16;;;;;;;26.65;5.32;;;19.30;66.50;;;;;;7900243;28;20203;-54
2022/03/21 09:59:02;;;;;;;17.75;3.97;;;19.40;66.70;;;;;;7898722;28;20211;-53
2022/03/21 10:02:48;;;;;;;29.48;4.40;;;19.40;66.80;;;;;;7899936;28;20689;-53
2022/03/21 10:06:40;;;;;;;22.30;4.05;;;19.50;66.70;;;;;;7905947;28;20560;-53
2022/03/21 10:10:26;;;;;;;16.55;5.03;;;19.50;66.60;;;;;;7899309;28;20836;-53
2022/03/21 10:14:27;;;;;;;19.20;4.63;;;19.50;66.70;;;;;;7899561;28;20265;-54
2022/03/21 10:18:13;;;;;;;13.93;3.67;;;19.50;66.70;;;;;;7896960;28;20196;-53
2022/03/21 10:22:11;;;;;;;16.60;3.97;;;19.60;66.80;;;;;;7913669;28;20198;-53
2022/03/21 10:25:57;;;;;;;16.42;3.88;;;19.60;66.80;;;;;;7930933;28;20172;-54
2022/03/21 10:29:53;;;;;;;18.42;3.88;;;19.60;66.80;;;;;;7930682;28;20219;-53
2022/03/21 10:33:38;;;;;;;15.07;4.18;;;19.60;66.80;;;;;;7906262;28;20200;-55
2022/03/21 10:37:23;;;;;;;17.25;3.80;;;19.60;66.80;;;;;;7913192;28;20307;-55
2022/03/21 10:41:09;;;;;;;17.88;3.63;;;19.60;66.80;;;;;;7927700;28;20395;-55
2022/03/21 10:44:56;;;;;;;22.42;4.20;;;19.70;66.70;;;;;;7908951;28;20693;-54
2022/03/21 10:48:43;;;;;;;12.80;3.55;;;19.70;66.70;;;;;;7896164;28;20184;-54
2022/03/21 10:52:28;;;;;;;17.00;3.92;;;19.80;66.80;;;;;;7914985;28;20584;-54
2022/03/21 10:56:14;;;;;;;14.35;3.60;;;19.80;66.70;;;;;;7927999;28;20234;-52
2022/03/21 11:00:23;;;;;;;17.50;3.80;;;19.90;66.80;;;;;;7929316;28;20248;-53
2022/03/21 11:04:09;;;;;;;14.43;3.70;;;19.90;66.40;;;;;;7899186;28;20530;-53
2022/03/21 11:07:55;;;;;;;15.00;4.10;;;20.00;66.40;;;;;;7922900;28;20175;-52
2022/03/21 11:11:40;;;;;;;19.35;4.03;;;20.00;66.30;;;;;;7935932;28;20206;-54
2022/03/21 11:15:26;;;;;;;13.32;3.65;;;20.10;66.30;;;;;;7937017;28;20210;-52
2022/03/21 11:19:12;;;;;;;6.25;3.65;;;20.10;66.20;;;;;;7935924;28;20206;-54
2022/03/21 11:22:59;;;;;;;7.88;3.25;;;20.10;66.20;;;;;;7912100;28;20211;-52
2022/03/21 11:27:02;;;;;;;11.32;3.28;;;20.10;66.20;;;;;;7904645;28;20187;-56
2022/03/21 11:31:24;;;;;;;10.95;3.15;;;20.10;66.20;;;;;;7903977;28;20282;-53
2022/03/21 11:35:15;;;;;;;9.65;3.20;;;20.10;66.20;;;;;;7905278;28;20184;-51
2022/03/21 11:39:03;;;;;;;10.20;3.03;;;20.10;66.10;;;;;;7935503;28;20236;-52
2022/03/21 11:42:48;;;;;;;8.90;2.70;;;20.10;66.20;;;;;;7923328;28;20296;-51
2022/03/21 11:46:36;;;;;;;13.50;3.90;;;20.10;66.10;;;;;;7903885;28;20246;-52
2022/03/21 11:50:26;;;;;;;7.90;3.00;;;20.00;66.20;;;;;;7903240;28;20204;-53
2022/03/21 11:54:29;;;;;;;9.70;2.90;;;20.00;66.40;;;;;;7903721;28;20280;-52
2022/03/21 11:58:45;;;;;;;10.80;3.17;;;20.00;66.50;;;;;;7903425;28;20247;-51
2022/03/21 12:02:30;;;;;;;13.82;3.47;;;20.00;67.50;;;;;;7903174;28;20682;-52
2022/03/21 12:06:32;;;;;;;4.93;2.83;;;20.00;66.60;;;;;;7920348;28;20558;-54
2022/03/21 12:10:37;;;;;;;7.70;3.13;;;20.00;66.80;;;;;;7934745;28;20178;-53
2022/03/21 12:14:24;;;;;;;6.13;3.20;;;20.00;66.80;;;;;;7935046;28;20214;-53
2022/03/21 12:18:09;;;;;;;11.30;3.00;;;20.00;66.80;;;;;;7934934;28;20700;-52
2022/03/21 12:22:43;;;;;;;4.13;2.92;;;20.10;66.80;;;;;;7917065;28;20650;-53
2022/03/21 12:26:33;;;;;;;5.80;3.13;;;20.10;67.00;;;;;;7903204;28;20173;-53
2022/03/21 12:30:27;;;;;;;9.10;2.85;;;20.10;66.90;;;;;;7902577;28;20212;-54
2022/03/21 12:34:34;;;;;;;5.65;2.83;;;20.10;67.00;;;;;;7902745;28;20224;-53
2022/03/21 12:38:25;;;;;;;8.38;2.65;;;20.10;67.10;;;;;;7902252;28;20205;-53
2022/03/21 12:42:18;;;;;;;10.20;2.90;;;20.10;67.10;;;;;;7901928;28;20681;-51
2022/03/21 12:46:08;;;;;;;4.82;2.60;;;20.10;67.00;;;;;;7902546;28;20693;-56
2022/03/21 12:49:55;;;;;;;7.60;2.63;;;20.10;66.80;;;;;;7901860;28;20196;-54
2022/03/21 12:53:44;;;;;;;7.35;2.63;;;20.20;66.90;;;;;;7933741;28;20202;-53
2022/03/21 12:57:32;;;;;;;6.38;2.30;;;20.20;66.90;;;;;;7933677;27;20668;-52
2022/03/21 13:01:19;;;;;;;4.05;2.72;;;20.30;66.90;;;;;;7933004;28;20180;-53
2022/03/21 13:13:15;;;;;;;5.88;2.60;;;20.30;67.00;;;;;;7907130;28;20212;-50
2022/03/21 13:17:02;;;;;;;7.28;2.63;;;20.30;67.00;;;;;;7932769;28;20183;-53
2022/03/21 13:20:49;;;;;;;13.10;3.40;;;20.30;67.00;;;;;;7924145;28;20176;-53
2022/03/21 13:24:39;;;;;;;6.75;2.78;;;20.30;66.90;;;;;;7901140;28;20297;-52
2022/03/21 13:28:31;;;;;;;5.95;2.63;;;20.40;67.00;;;;;;7901089;28;20688;-49
2022/03/21 13:32:17;;;;;;;10.25;2.75;;;20.30;67.00;;;;;;7900798;28;20216;-55
2022/03/21 13:36:06;;;;;;;6.03;2.53;;;20.40;67.00;;;;;;7901334;28;20810;-49
2022/03/21 13:40:09;;;;;;;7.40;2.75;;;20.40;67.00;;;;;;7900636;28;20224;-49
2022/03/21 13:44:05;;;;;;;8.02;2.72;;;20.40;67.10;;;;;;7901089;28;20200;-53
2022/03/21 13:47:53;;;;;;;7.53;2.60;;;20.40;67.10;;;;;;7910438;28;20235;-53
2022/03/21 13:51:42;;;;;;;3.80;2.55;;;20.40;67.20;;;;;;7900037;28;20211;-53
2022/03/21 13:55:28;;;;;;;5.75;2.65;;;20.40;67.20;;;;;;7900340;28;20207;-53
2022/03/21 13:59:16;;;;;;;7.90;3.28;;;20.40;67.20;;;;;;7899662;28;20208;-53
2022/03/21 14:03:04;;;;;;;10.35;2.60;;;20.40;67.20;;;;;;7900144;28;20737;-52
2022/03/21 14:06:57;;;;;;;7.25;3.17;;;20.40;67.20;;;;;;7900067;28;20181;-51
2022/03/21 14:10:51;;;;;;;4.38;2.70;;;20.30;67.20;;;;;;7899763;28;20180;-54
2022/03/21 14:14:37;;;;;;;5.55;2.30;;;20.30;67.20;;;;;;7906272;28;20196;-51
2022/03/21 14:18:31;;;;;;;8.10;2.92;;;20.30;67.20;;;;;;7907127;28;20251;-52
2022/03/21 14:22:17;;;;;;;7.72;2.88;;;20.30;67.20;;;;;;7900118;28;20207;-52
2022/03/21 14:30:09;;;;;;;10.52;2.92;;;20.30;67.20;;;;;;7900235;28;20188;-52
2022/03/21 14:33:54;;;;;;;14.45;3.00;;;20.30;67.20;;;;;;7900288;28;20207;-52
2022/03/21 14:37:40;;;;;;;25.42;3.50;;;20.30;67.30;;;;;;7900247;28;20196;-53
2022/03/21 14:41:25;;;;;;;14.52;3.03;;;20.30;67.20;;;;;;7913588;28;20649;-54
2022/03/21 14:45:12;;;;;;;17.98;3.70;;;20.40;67.20;;;;;;7929721;28;20214;-51
2022/03/21 14:48:57;;;;;;;7.20;2.95;;;20.40;67.00;;;;;;7922896;28;20182;-52
2022/03/21 14:52:43;;;;;;;16.75;3.83;;;20.50;66.80;;;;;;7922184;28;20196;-52
2022/03/21 14:56:28;;;;;;;11.90;3.47;;;20.60;66.70;;;;;;7931810;28;20654;-55
2022/03/21 15:00:15;;;;;;;19.27;3.13;;;20.70;66.30;;;;;;7903628;28;20292;-50
2022/03/21 15:04:01;;;;;;;8.95;3.05;;;20.90;66.10;;;;;;7906498;28;20197;-53
2022/03/21 15:07:46;;;;;;;10.68;2.97;;;21.00;66.10;;;;;;7906505;28;20219;-51
2022/03/21 15:11:34;;;;;;;5.30;3.03;;;21.10;65.90;;;;;;7909361;28;20195;-56
2022/03/21 15:15:22;;;;;;;9.55;3.45;;;21.10;65.70;;;;;;7913873;28;20313;-49
2022/03/21 15:19:07;;;;;;;5.30;2.90;;;21.20;65.60;;;;;;7905568;28;20259;-53
2022/03/21 15:22:53;;;;;;;10.68;2.95;;;21.20;65.60;;;;;;7905982;28;20192;-49
2022/03/21 15:26:38;;;;;;;6.82;2.90;;;21.20;66.40;;;;;;7905983;28;20195;-49
2022/03/21 15:30:24;;;;;;;8.45;2.65;;;21.20;65.60;;;;;;7905462;28;20325;-51
2022/03/21 15:34:09;;;;;;;6.68;2.78;;;21.20;65.70;;;;;;7905282;28;20197;-49
2022/03/21 15:41:59;;;;;;;6.13;2.58;;;21.10;65.70;;;;;;7904827;28;20255;-50
2022/03/21 15:45:44;;;;;;;7.38;2.75;;;21.10;65.70;;;;;;7904990;28;20282;-53
2022/03/21 15:49:30;;;;;;;7.18;2.92;;;21.00;65.80;;;;;;7904501;28;20201;-49
2022/03/21 15:53:15;;;;;;;9.93;3.03;;;21.00;65.80;;;;;;7904932;28;20200;-49
2022/03/21 15:57:01;;;;;;;4.45;2.83;;;20.90;65.80;;;;;;7904628;28;20634;-52
2022/03/21 16:00:47;;;;;;;6.05;2.65;;;20.90;65.90;;;;;;7904185;28;20204;-51
2022/03/21 16:04:35;;;;;;;4.35;2.67;;;20.80;65.80;;;;;;7904496;28;20226;-51
2022/03/21 16:08:21;;;;;;;5.50;2.80;;;20.80;65.90;;;;;;7904516;28;20263;-53
2022/03/21 16:12:06;;;;;;;5.38;3.08;;;20.80;65.90;;;;;;7903978;28;20691;-52
2022/03/21 16:15:54;;;;;;;3.78;2.63;;;20.80;65.90;;;;;;7904251;28;20180;-50
2022/03/21 16:19:40;;;;;;;7.07;2.95;;;20.80;65.90;;;;;;7903656;28;20212;-51
2022/03/21 16:23:26;;;;;;;3.70;2.55;;;20.70;65.90;;;;;;7903760;28;20270;-49
2022/03/21 16:27:11;;;;;;;4.85;2.92;;;20.70;65.90;;;;;;7903689;28;20179;-52
2022/03/21 16:30:57;;;;;;;7.30;2.88;;;20.70;65.90;;;;;;7903518;28;20179;-50
2022/03/21 16:34:47;;;;;;;4.53;3.10;;;20.70;65.80;;;;;;7903606;28;20189;-53
2022/03/21 16:38:33;;;;;;;4.55;2.97;;;20.70;65.70;;;;;;7903421;28;20201;-54
2022/03/21 16:42:19;;;;;;;5.15;2.90;;;20.70;65.70;;;;;;7903117;28;20201;-49
2022/03/21 16:46:05;;;;;;;6.22;3.00;;;20.70;65.70;;;;;;7903178;28;20173;-53
2022/03/21 16:49:51;;;;;;;3.72;2.85;;;20.60;65.70;;;;;;7902902;28;20199;-49
2022/03/21 16:53:37;;;;;;;5.20;2.47;;;20.60;65.70;;;;;;7905747;28;20211;-52
2022/03/21 16:57:23;;;;;;;3.78;2.90;;;20.60;65.70;;;;;;7926970;28;20179;-56
2022/03/21 17:01:09;;;;;;;4.47;3.00;;;20.50;65.60;;;;;;7934279;28;20673;-53
2022/03/21 17:04:54;;;;;;;4.32;2.85;;;20.60;65.70;;;;;;7934086;28;20204;-53
2022/03/21 17:08:40;;;;;;;6.10;3.00;;;20.50;65.60;;;;;;7921761;28;20191;-56
2022/03/21 17:12:26;;;;;;;7.55;3.28;;;20.50;65.60;;;;;;7916071;28;20207;-56
2022/03/21 17:16:11;;;;;;;14.88;3.00;;;20.60;65.20;;;;;;7915003;28;20263;-51
2022/03/21 17:24:01;;;;;;;13.85;3.15;;;20.60;65.30;;;;;;7933404;28;20192;-51
2022/03/21 17:27:46;;;;;;;7.53;2.90;;;20.70;65.30;;;;;;7933441;28;20187;-51
2022/03/21 17:31:32;;;;;;;6.63;3.10;;;20.70;65.20;;;;;;7933101;28;20172;-51
2022/03/21 17:35:17;;;;;;;8.00;3.22;;;20.70;65.10;;;;;;7933065;28;20233;-51
2022/03/21 17:39:03;;;;;;;8.18;3.00;;;20.80;64.70;;;;;;7932897;28;20573;-51
2022/03/21 17:42:49;;;;;;;10.57;3.83;;;20.90;65.00;;;;;;7932866;28;20198;-52
2022/03/21 17:46:34;;;;;;;12.77;4.13;;;21.00;64.60;;;;;;7932979;28;20172;-54
2022/03/21 17:50:20;;;;;;;8.45;3.97;;;21.00;63.40;;;;;;7932608;28;20184;-52
2022/03/21 17:54:06;;;;;;;8.18;3.33;;;21.10;62.50;;;;;;7932625;28;20241;-52
2022/03/21 17:57:51;;;;;;;7.45;4.18;;;21.20;62.10;;;;;;7932491;28;20192;-54
2022/03/21 18:01:37;;;;;;;9.88;4.13;;;21.30;61.40;;;;;;7932370;28;20172;-52
2022/03/21 18:05:23;;;;;;;8.93;3.65;;;21.50;60.90;;;;;;7932630;28;20594;-51
2022/03/21 18:09:08;;;;;;;7.80;4.25;;;21.50;60.40;;;;;;7932155;28;20521;-51
2022/03/21 18:12:54;;;;;;;9.30;5.47;;;21.60;60.10;;;;;;7932424;28;20196;-51
2022/03/21 18:16:40;;;;;;;5.13;3.83;;;21.60;60.00;;;;;;7932173;28;20183;-51
2022/03/21 18:20:33;;;;;;;6.50;4.00;;;21.60;59.70;;;;;;7931020;28;20203;-52
2022/03/21 18:24:19;;;;;;;6.80;4.20;;;21.70;59.60;;;;;;7932261;28;20196;-53
2022/03/21 18:28:05;;;;;;;5.28;4.00;;;21.70;59.70;;;;;;7932500;28;20195;-51
2022/03/21 18:31:52;;;;;;;5.85;4.32;;;21.80;59.70;;;;;;7932328;28;20172;-52
2022/03/21 18:35:38;;;;;;;7.18;3.70;;;21.80;60.00;;;;;;7932026;28;20206;-53
2022/03/21 18:39:23;;;;;;;8.52;3.45;;;21.90;61.10;;;;;;7931788;28;20204;-51
2022/03/21 18:43:09;;;;;;;6.40;3.70;;;22.00;61.40;;;;;;7929961;28;20196;-52
2022/03/21 18:46:54;;;;;;;7.93;5.60;;;22.10;61.10;;;;;;7904434;28;20561;-53
2022/03/21 18:50:40;;;;;;;8.23;3.70;;;22.10;59.70;;;;;;7916746;28;20279;-54
2022/03/21 18:54:25;;;;;;;12.52;3.80;;;22.20;61.10;;;;;;7899915;28;20583;-56
2022/03/21 18:58:11;;;;;;;9.93;3.83;;;22.20;61.10;;;;;;7899953;28;20291;-55
2022/03/21 19:01:56;;;;;;;4.93;3.28;;;22.30;61.40;;;;;;7899593;28;20226;-55
2022/03/21 19:05:42;;;;;;;6.03;3.17;;;22.30;61.50;;;;;;7912656;28;20171;-56
2022/03/21 19:09:29;;;;;;;7.45;3.13;;;22.30;61.40;;;;;;7931012;28;20226;-53
2022/03/21 19:13:15;;;;;;;5.90;3.30;;;22.40;61.50;;;;;;7931592;28;20801;-53
2022/03/21 19:17:01;;;;;;;7.80;3.67;;;22.30;61.50;;;;;;7931316;28;20607;-54
2022/03/21 19:20:46;;;;;;;6.90;3.45;;;22.30;61.70;;;;;;7931027;28;20684;-53
2022/03/21 19:24:36;;;;;;;7.72;3.20;;;22.30;61.80;;;;;;7931036;28;20672;-53
2022/03/21 19:28:22;;;;;;;9.88;3.78;;;22.20;62.00;;;;;;7931476;28;20179;-55
2022/03/21 19:32:07;;;;;;;8.90;3.63;;;22.20;62.10;;;;;;7934179;28;20203;-52
2022/03/21 19:35:54;;;;;;;11.05;3.88;;;22.10;62.10;;;;;;7936957;28;20175;-54
2022/03/21 19:39:40;;;;;;;10.93;3.45;;;22.00;62.20;;;;;;7936505;28;20235;-51
2022/03/21 19:43:27;;;;;;;18.50;4.13;;;22.00;62.40;;;;;;7936638;28;20701;-53
2022/03/21 19:47:12;;;;;;;11.30;4.43;;;22.00;62.70;;;;;;7937004;28;20645;-52
2022/03/21 19:50:58;;;;;;;7.90;3.70;;;22.00;63.00;;;;;;7936722;28;20563;-53
2022/03/21 19:54:43;;;;;;;12.52;4.15;;;21.90;63.20;;;;;;7936332;28;20203;-53
2022/03/21 19:58:30;;;;;;;14.57;4.15;;;21.90;63.30;;;;;;7936333;28;20195;-52
2022/03/21 20:02:16;;;;;;;8.15;4.47;;;21.90;63.50;;;;;;7935878;28;20172;-54
2022/03/21 20:06:01;;;;;;;17.05;4.05;;;21.80;63.70;;;;;;7936044;28;20169;-52
2022/03/21 20:09:48;;;;;;;13.73;4.13;;;21.80;63.50;;;;;;7935674;28;20184;-53
2022/03/21 20:13:34;;;;;;;13.30;3.97;;;21.80;63.80;;;;;;7935606;28;20188;-53
2022/03/21 20:17:19;;;;;;;16.67;4.45;;;21.70;63.00;;;;;;7914940;28;20653;-54
2022/03/21 20:21:04;;;;;;;17.23;5.72;;;21.70;63.40;;;;;;7935353;28;20160;-54
2022/03/21 20:24:50;;;;;;;23.50;5.30;;;21.70;60.50;;;;;;7935413;28;20221;-52